Time;durP1;ratioP1;P1;durP2;ratioP2;P2;SDS_P1;SDS_P2;PMS_P1;PMS_P2;Temp;Humidity;BMP_temperature;BMP_pressure;BME280_temperature;BME280_humidity;BME280_pressure;Samples;Min_cycle;Max_cycle;Signal;HPM_P1;HPM_P2
2021/11/12 00:04:45;;;;;;;12.13;9.30;;;4.10;99.90;;;;;;5094188;28;20474;-81
2021/11/12 00:12:35;;;;;;;21.03;10.67;;;4.10;99.90;;;;;;5150798;27;20373;-82
2021/11/12 00:15:01;;;;;;;27.47;13.30;;;4.10;99.90;;;;;;5151221;27;20374;-82
2021/11/12 00:17:32;;;;;;;27.37;10.20;;;4.10;99.90;;;;;;5152555;27;20426;-82
2021/11/12 00:19:59;;;;;;;15.13;10.73;;;4.00;99.90;;;;;;5153046;27;20362;-82
2021/11/12 00:22:27;;;;;;;21.23;11.37;;;4.00;99.90;;;;;;5152410;27;20525;-82
2021/11/12 00:24:54;;;;;;;20.40;13.50;;;4.00;99.90;;;;;;5133809;27;20350;-82
2021/11/12 00:27:23;;;;;;;34.33;12.20;;;4.00;99.90;;;;;;5153263;27;20383;-82
2021/11/12 00:30:00;;;;;;;32.57;13.30;;;3.90;99.90;;;;;;5152532;27;20501;-81
2021/11/12 00:37:57;;;;;;;22.17;12.07;;;4.10;99.90;;;;;;5112307;28;20473;-82
2021/11/12 00:40:28;;;;;;;48.37;15.20;;;4.10;99.90;;;;;;5094202;28;20431;-82
2021/11/12 00:45:48;;;;;;;20.83;12.30;;;3.80;99.90;;;;;;5134353;28;20351;-79
2021/11/12 00:48:18;;;;;;;18.23;9.50;;;3.90;99.90;;;;;;5135434;28;20369;-81
2021/11/12 00:50:59;;;;;;;34.23;12.43;;;4.00;99.90;;;;;;5101033;28;20400;-82
2021/11/12 00:55:58;;;;;;;23.10;12.63;;;4.00;99.90;;;;;;5134471;28;20386;-80
2021/11/12 00:58:24;;;;;;;34.17;14.90;;;4.00;99.90;;;;;;5116537;28;20396;-79
2021/11/12 01:00:50;;;;;;;26.60;13.60;;;3.70;99.90;;;;;;5117211;28;20197;-82
2021/11/12 01:03:18;;;;;;;24.23;11.40;;;3.80;99.90;;;;;;5134810;28;20194;-82
2021/11/12 01:05:44;;;;;;;31.73;12.70;;;3.80;99.90;;;;;;5134422;28;20397;-80
2021/11/12 01:08:10;;;;;;;25.60;13.30;;;3.60;99.90;;;;;;5134275;28;20400;-81
2021/11/12 01:10:36;;;;;;;40.53;13.67;;;3.30;99.90;;;;;;5135467;28;20585;-80
2021/11/12 01:13:03;;;;;;;30.70;12.63;;;3.30;99.90;;;;;;5137999;27;20195;-81
2021/11/12 01:15:28;;;;;;;31.00;12.33;;;2.70;99.90;;;;;;5156884;27;20404;-82
2021/11/12 01:17:55;;;;;;;28.93;12.80;;;2.80;99.90;;;;;;5157054;27;20370;-80
2021/11/12 01:20:21;;;;;;;20.27;14.67;;;2.70;99.90;;;;;;5156854;27;20175;-81
2021/11/12 01:22:49;;;;;;;25.47;13.53;;;2.70;99.90;;;;;;5138506;27;20451;-80
2021/11/12 01:25:18;;;;;;;20.77;12.20;;;2.90;99.90;;;;;;5135897;28;20434;-81
2021/11/12 01:27:44;;;;;;;22.73;12.43;;;2.60;99.90;;;;;;5148994;27;20440;-80
2021/11/12 01:30:13;;;;;;;19.20;12.77;;;2.40;99.90;;;;;;5150196;27;20358;-82
2021/11/12 01:32:39;;;;;;;18.03;10.70;;;2.70;99.90;;;;;;5150784;27;20190;-81
2021/11/12 01:35:06;;;;;;;25.03;12.33;;;2.60;99.90;;;;;;5151198;27;20378;-81
2021/11/12 01:37:34;;;;;;;39.53;11.63;;;2.40;99.90;;;;;;5150828;27;20381;-81
2021/11/12 01:40:05;;;;;;;34.03;12.97;;;2.60;99.90;;;;;;5151285;28;20429;-82
2021/11/12 01:43:07;;;;;;;15.27;10.87;;;2.60;99.90;;;;;;5151125;28;20421;-82
2021/11/12 01:45:46;;;;;;;21.13;12.13;;;2.50;99.90;;;;;;5113676;28;20449;-81
2021/11/12 01:51:02;;;;;;;16.20;10.87;;;2.20;99.90;;;;;;5149022;28;20394;-81
2021/11/12 01:53:35;;;;;;;31.60;11.43;;;2.40;99.90;;;;;;5148598;28;20406;-81
2021/11/12 01:58:53;;;;;;;12.80;8.60;;;2.20;99.90;;;;;;5149340;28;20446;-81
2021/11/12 02:01:22;;;;;;;20.27;9.27;;;2.10;99.90;;;;;;5131767;28;20460;-81
2021/11/12 02:03:49;;;;;;;17.17;8.90;;;2.00;99.90;;;;;;5149430;28;20417;-81
2021/11/12 02:06:18;;;;;;;45.53;11.07;;;1.80;99.90;;;;;;5149475;28;20458;-82
2021/11/12 02:08:44;;;;;;;17.70;10.33;;;1.70;99.90;;;;;;5131702;28;20394;-81
2021/11/12 02:11:11;;;;;;;12.00;8.27;;;1.90;99.90;;;;;;5130804;28;20370;-81
2021/11/12 02:13:42;;;;;;;9.23;7.23;;;1.80;99.90;;;;;;5143827;28;20424;-81
2021/11/12 02:16:12;;;;;;;20.07;9.87;;;2.00;99.90;;;;;;5128706;28;20379;-81
2021/11/12 02:18:41;;;;;;;14.40;9.13;;;2.10;99.90;;;;;;5079559;28;20391;-81
2021/11/12 02:21:12;;;;;;;15.93;9.00;;;2.20;99.90;;;;;;5114895;28;20406;-81
2021/11/12 02:23:44;;;;;;;36.23;10.73;;;2.20;99.90;;;;;;5116314;28;20458;-80
2021/11/12 02:26:18;;;;;;;15.43;9.70;;;2.10;99.90;;;;;;5133329;28;20392;-81
2021/11/12 02:28:46;;;;;;;17.50;11.77;;;2.40;99.90;;;;;;5116712;28;20453;-81
2021/11/12 02:31:12;;;;;;;9.73;8.50;;;2.50;99.90;;;;;;5115274;28;20390;-81
2021/11/12 02:33:38;;;;;;;22.43;11.10;;;2.40;99.90;;;;;;5119186;27;20385;-81
2021/11/12 02:36:12;;;;;;;11.33;8.60;;;2.30;99.90;;;;;;5153189;27;20480;-81
2021/11/12 02:38:42;;;;;;;21.57;10.80;;;2.30;99.90;;;;;;5150027;27;20419;-81
2021/11/12 02:41:09;;;;;;;25.20;11.97;;;2.30;99.90;;;;;;5132546;28;20426;-81
2021/11/12 02:43:37;;;;;;;14.40;8.97;;;2.20;99.90;;;;;;5132512;28;20451;-81
2021/11/12 02:46:05;;;;;;;16.20;11.23;;;2.10;99.90;;;;;;5132192;28;20394;-81
2021/11/12 02:48:35;;;;;;;13.43;8.90;;;2.00;99.90;;;;;;5132433;28;20359;-82
2021/11/12 02:51:03;;;;;;;17.40;9.73;;;2.00;99.90;;;;;;5132554;28;20396;-82
2021/11/12 02:53:28;;;;;;;23.43;9.67;;;2.00;99.90;;;;;;5134581;27;20426;-82
2021/11/12 02:55:59;;;;;;;18.77;10.57;;;2.30;99.90;;;;;;5117215;27;20374;-81
2021/11/12 02:58:25;;;;;;;25.37;11.03;;;2.10;99.90;;;;;;5153189;27;20214;-81
2021/11/12 03:00:51;;;;;;;22.83;10.77;;;1.90;99.90;;;;;;5153377;27;20395;-80
2021/11/12 03:03:16;;;;;;;12.70;9.43;;;1.90;99.90;;;;;;5153084;27;20256;-80
2021/11/12 03:05:42;;;;;;;13.23;9.03;;;1.70;99.90;;;;;;5133309;28;20391;-81
2021/11/12 03:08:08;;;;;;;19.73;11.27;;;1.80;99.90;;;;;;5132559;28;20169;-81
2021/11/12 03:10:34;;;;;;;13.37;10.07;;;1.80;99.90;;;;;;5132285;28;20241;-81
2021/11/12 03:13:00;;;;;;;13.03;11.07;;;2.00;99.90;;;;;;5132744;28;20396;-81
2021/11/12 03:15:26;;;;;;;15.43;8.07;;;2.00;99.90;;;;;;5132427;28;20390;-81
2021/11/12 03:17:55;;;;;;;17.07;9.73;;;1.90;99.90;;;;;;5131787;28;20162;-81
2021/11/12 03:20:23;;;;;;;14.13;10.80;;;1.80;99.90;;;;;;5113661;28;20250;-80
2021/11/12 03:22:55;;;;;;;17.90;11.93;;;1.90;99.90;;;;;;5131198;28;20474;-81
2021/11/12 03:25:29;;;;;;;11.73;9.00;;;1.90;99.90;;;;;;5131964;28;20417;-81
2021/11/12 04:00:19;;;;;;;14.17;11.30;;;2.10;99.90;;;;;;5137766;27;20375;-82
2021/11/12 04:02:51;;;;;;;25.87;14.73;;;2.30;99.90;;;;;;5150676;27;20791;-81
2021/11/12 04:21:44;;;;;;;25.13;13.40;;;2.00;99.90;;;;;;5152443;27;20431;-81
2021/11/12 04:40:35;;;;;;;15.23;9.97;;;2.20;99.90;;;;;;5131950;28;20478;-82
2021/11/12 05:09:57;;;;;;;23.30;11.80;;;2.40;99.90;;;;;;5159212;27;20415;-80
2021/11/12 05:44:49;;;;;;;27.00;12.10;;;2.40;99.90;;;;;;5120793;28;20378;-82
2021/11/12 05:50:09;;;;;;;24.27;12.67;;;2.40;99.90;;;;;;5149401;28;20376;-81
2021/11/12 05:55:19;;;;;;;34.47;12.23;;;2.10;99.90;;;;;;5154333;27;20385;-81
2021/11/12 05:57:45;;;;;;;25.70;10.90;;;2.00;99.90;;;;;;5153805;27;20485;-81
2021/11/12 06:00:15;;;;;;;31.73;12.93;;;2.20;99.90;;;;;;5153862;27;20362;-81
2021/11/12 06:02:41;;;;;;;23.10;10.37;;;2.20;99.90;;;;;;5153878;27;20409;-81
2021/11/12 06:05:08;;;;;;;14.87;11.40;;;2.10;99.90;;;;;;5153349;27;20446;-80
2021/11/12 06:07:34;;;;;;;24.10;13.63;;;2.20;99.90;;;;;;5154022;27;20366;-81
2021/11/12 06:10:00;;;;;;;19.30;11.10;;;2.50;99.90;;;;;;5153862;27;20377;-81
2021/11/12 06:12:27;;;;;;;20.30;12.07;;;2.50;99.90;;;;;;5153779;27;20365;-81
2021/11/12 06:14:53;;;;;;;18.50;11.10;;;2.30;99.90;;;;;;5153268;27;20165;-81
2021/11/12 06:17:19;;;;;;;26.80;14.20;;;2.40;99.90;;;;;;5154431;27;20362;-81
2021/11/12 06:19:45;;;;;;;19.40;11.40;;;2.30;99.90;;;;;;5154063;27;20725;-81
2021/11/12 06:22:13;;;;;;;16.90;10.30;;;2.40;99.90;;;;;;5152904;27;20533;-82
2021/11/12 06:24:39;;;;;;;14.57;10.70;;;2.40;99.90;;;;;;5153126;27;20166;-81
2021/11/12 06:27:10;;;;;;;22.20;11.83;;;2.30;99.90;;;;;;5153810;27;20403;-81
2021/11/12 06:29:36;;;;;;;15.30;10.80;;;2.50;99.90;;;;;;5136281;27;20166;-81
2021/11/12 06:32:03;;;;;;;15.87;9.30;;;2.60;99.90;;;;;;5153591;27;20366;-81
2021/11/12 06:34:30;;;;;;;18.97;12.80;;;2.50;99.90;;;;;;5153639;27;20453;-82
2021/11/12 06:36:56;;;;;;;19.50;11.13;;;2.20;99.90;;;;;;5135239;27;20369;-81
2021/11/12 06:39:21;;;;;;;23.33;11.37;;;2.30;99.90;;;;;;5119679;28;20450;-81
2021/11/12 06:41:54;;;;;;;23.07;11.30;;;2.60;99.90;;;;;;5133294;28;20162;-80
2021/11/12 06:44:29;;;;;;;24.20;12.63;;;2.60;99.90;;;;;;5133108;28;20158;-81
2021/11/12 06:52:21;;;;;;;21.97;11.83;;;2.80;99.90;;;;;;5118318;28;20405;-81
2021/11/12 06:54:47;;;;;;;24.73;13.00;;;3.00;99.90;;;;;;5126970;27;20382;-79
2021/11/12 06:57:16;;;;;;;34.20;12.40;;;2.90;99.90;;;;;;5111074;28;20398;-79
2021/11/12 06:59:43;;;;;;;28.93;16.30;;;2.80;99.90;;;;;;5129312;28;20450;-79
2021/11/12 07:02:11;;;;;;;21.37;13.67;;;2.80;99.90;;;;;;5133626;28;20487;-79
2021/11/12 07:04:37;;;;;;;21.10;11.80;;;2.60;99.90;;;;;;5117258;27;20415;-80
2021/11/12 07:07:05;;;;;;;28.13;14.23;;;2.60;99.90;;;;;;5109587;28;20422;-80
2021/11/12 07:09:31;;;;;;;26.43;12.50;;;2.60;99.90;;;;;;5083741;28;21000;-80
2021/11/12 07:11:58;;;;;;;29.80;12.57;;;2.70;99.90;;;;;;5120419;28;20411;-81
2021/11/12 07:14:24;;;;;;;17.03;10.60;;;2.90;99.90;;;;;;5103841;27;20691;-80
2021/11/12 07:16:50;;;;;;;24.10;12.93;;;2.80;99.90;;;;;;5130107;27;20412;-80
2021/11/12 07:19:16;;;;;;;24.43;13.20;;;3.00;99.90;;;;;;5120606;28;20429;-82
2021/11/12 07:21:42;;;;;;;19.03;11.27;;;3.10;99.90;;;;;;5122332;28;20197;-81
2021/11/12 07:24:17;;;;;;;24.20;12.77;;;3.00;99.90;;;;;;5111991;28;20162;-80
2021/11/12 07:26:44;;;;;;;19.90;12.93;;;3.10;99.90;;;;;;5101065;28;20394;-80
2021/11/12 07:29:10;;;;;;;21.80;12.80;;;3.20;99.90;;;;;;5087378;28;20573;-79
2021/11/12 07:31:38;;;;;;;13.90;10.20;;;3.10;99.90;;;;;;5090876;28;20254;-80
2021/11/12 07:34:14;;;;;;;14.73;9.50;;;2.90;99.90;;;;;;5094815;28;20519;-80
2021/11/12 07:36:49;;;;;;;22.60;11.47;;;3.20;99.90;;;;;;4982797;28;20392;-80
2021/11/12 07:39:20;;;;;;;19.87;11.63;;;2.70;99.90;;;;;;5012875;28;20436;-79
2021/11/12 07:42:09;;;;;;;17.80;9.57;;;2.80;99.90;;;;;;4995855;28;20424;-79
2021/11/12 07:47:14;;;;;;;19.33;10.50;;;2.90;99.90;;;;;;4989610;28;20410;-81
2021/11/12 07:49:42;;;;;;;20.90;10.30;;;3.00;99.90;;;;;;5001592;28;20499;-82
2021/11/12 07:52:10;;;;;;;20.37;10.10;;;3.00;99.90;;;;;;4995661;28;20420;-81
2021/11/12 07:54:38;;;;;;;15.43;8.80;;;3.00;99.90;;;;;;4988896;28;20500;-81
2021/11/12 07:57:06;;;;;;;14.77;10.63;;;3.20;99.90;;;;;;5000961;28;20457;-82
2021/11/12 07:59:32;;;;;;;16.53;9.07;;;3.10;99.90;;;;;;5003106;28;20699;-81
2021/11/12 08:01:58;;;;;;;15.40;11.60;;;3.30;99.90;;;;;;5005955;28;20427;-82
2021/11/12 08:04:24;;;;;;;11.30;8.00;;;3.30;99.90;;;;;;5000882;28;20418;-81
2021/11/12 08:06:53;;;;;;;16.17;10.07;;;3.20;99.90;;;;;;5005006;28;20189;-81
2021/11/12 08:09:22;;;;;;;18.83;11.03;;;3.00;99.90;;;;;;4971238;28;20510;-80
2021/11/12 08:11:52;;;;;;;13.03;8.90;;;3.20;99.90;;;;;;5001284;28;20419;-82
2021/11/12 08:14:29;;;;;;;15.70;10.53;;;3.10;99.90;;;;;;5020189;28;20423;-80
2021/11/12 08:19:39;;;;;;;16.87;10.27;;;2.90;99.90;;;;;;5027685;28;20443;-80
2021/11/12 08:22:09;;;;;;;17.00;10.10;;;3.10;99.90;;;;;;5030323;28;20464;-80
2021/11/12 08:24:45;;;;;;;11.77;9.10;;;2.90;99.90;;;;;;5029703;28;20540;-80
2021/11/12 08:27:33;;;;;;;10.80;8.80;;;3.10;99.90;;;;;;5065677;28;20400;-80
2021/11/12 08:30:10;;;;;;;14.20;8.60;;;3.10;99.90;;;;;;5090569;28;20492;-80
2021/11/12 08:35:32;;;;;;;13.87;10.20;;;3.40;99.90;;;;;;5090485;28;20749;-80
2021/11/12 08:43:35;;;;;;;16.90;12.10;;;3.00;99.90;;;;;;5109808;28;20460;-79
2021/11/12 08:46:15;;;;;;;14.60;10.20;;;2.90;99.90;;;;;;5091181;28;20400;-80
2021/11/12 08:48:50;;;;;;;18.60;10.87;;;2.80;99.90;;;;;;5079089;28;20463;-80
2021/11/12 08:51:19;;;;;;;25.50;11.00;;;3.10;99.90;;;;;;5093354;28;20435;-79
2021/11/12 08:53:46;;;;;;;14.60;10.00;;;3.20;99.90;;;;;;5075484;28;20535;-80
2021/11/12 08:56:13;;;;;;;18.60;12.10;;;3.20;99.90;;;;;;5083784;28;20462;-79
2021/11/12 08:58:43;;;;;;;17.23;12.37;;;3.30;99.90;;;;;;5098685;28;20425;-80
2021/11/12 09:01:10;;;;;;;18.30;10.83;;;3.30;99.90;;;;;;5091238;28;20406;-79
2021/11/12 09:03:41;;;;;;;20.03;12.77;;;3.40;99.90;;;;;;5059007;28;20498;-81
2021/11/12 09:06:08;;;;;;;19.53;9.47;;;3.30;99.90;;;;;;5078199;28;20420;-81
2021/11/12 09:08:36;;;;;;;15.87;9.80;;;3.50;99.90;;;;;;5060102;28;20911;-80
2021/11/12 09:11:10;;;;;;;22.80;11.23;;;3.40;99.90;;;;;;5037373;28;20443;-80
2021/11/12 09:13:47;;;;;;;18.20;12.73;;;3.30;99.90;;;;;;5070754;28;20417;-80
2021/11/12 09:16:17;;;;;;;17.17;10.17;;;3.50;99.90;;;;;;5045590;28;20750;-80
2021/11/12 09:18:48;;;;;;;17.87;9.83;;;3.50;99.90;;;;;;5074034;28;20407;-80
2021/11/12 09:21:17;;;;;;;20.30;13.40;;;3.50;99.90;;;;;;5057244;28;20458;-79
2021/11/12 09:23:49;;;;;;;27.00;13.00;;;3.50;99.90;;;;;;5071582;28;20438;-81
2021/11/12 09:26:22;;;;;;;15.50;9.40;;;3.50;99.90;;;;;;5051390;28;20410;-79
2021/11/12 09:28:48;;;;;;;17.27;11.23;;;3.40;99.90;;;;;;5064056;28;20927;-80
2021/11/12 09:31:20;;;;;;;18.83;13.00;;;3.50;99.90;;;;;;5006697;28;20431;-81
2021/11/12 09:33:49;;;;;;;18.40;11.77;;;3.60;99.90;;;;;;5010389;28;20450;-80
2021/11/12 09:36:21;;;;;;;25.87;13.20;;;3.70;99.90;;;;;;5019038;28;20440;-79
2021/11/12 09:38:50;;;;;;;24.17;14.20;;;3.60;99.90;;;;;;5033548;28;20821;-81
2021/11/12 09:41:19;;;;;;;22.93;10.53;;;3.50;99.90;;;;;;5032909;28;20465;-81
2021/11/12 09:43:48;;;;;;;24.33;10.83;;;3.60;99.90;;;;;;5019799;28;20461;-79
2021/11/12 09:46:20;;;;;;;25.77;11.50;;;3.60;99.90;;;;;;4980922;28;20440;-81
2021/11/12 09:48:46;;;;;;;19.97;11.27;;;3.60;99.90;;;;;;4977813;28;20503;-82
2021/11/12 09:51:12;;;;;;;17.43;12.73;;;3.70;99.90;;;;;;5009092;28;20464;-82
2021/11/12 09:53:39;;;;;;;18.00;10.50;;;3.90;99.90;;;;;;5013842;28;20231;-80
2021/11/12 09:56:08;;;;;;;29.90;9.37;;;3.70;99.90;;;;;;4988438;28;20410;-80
2021/11/12 09:58:35;;;;;;;19.37;11.00;;;3.70;99.90;;;;;;5011201;28;20881;-81
2021/11/12 10:01:02;;;;;;;18.97;10.17;;;3.60;99.90;;;;;;5012795;28;20479;-81
2021/11/12 10:03:45;;;;;;;28.17;11.67;;;3.60;99.90;;;;;;5035199;28;20470;-80
2021/11/12 10:06:27;;;;;;;24.00;12.03;;;3.80;99.90;;;;;;4985509;28;21036;-80
2021/11/12 10:08:57;;;;;;;23.27;11.57;;;3.70;99.90;;;;;;5007636;28;20498;-81
2021/11/12 10:11:28;;;;;;;15.60;9.57;;;3.70;99.90;;;;;;5006473;28;20515;-81
2021/11/12 10:14:09;;;;;;;17.03;11.70;;;3.50;99.90;;;;;;5009273;28;20461;-82
2021/11/12 10:16:35;;;;;;;14.20;10.73;;;3.70;99.90;;;;;;5028754;28;20413;-81
2021/11/12 10:19:17;;;;;;;27.83;12.43;;;3.80;99.90;;;;;;5045889;28;20441;-80
2021/11/12 10:21:51;;;;;;;21.10;11.80;;;3.90;99.90;;;;;;5058996;28;20462;-79
2021/11/12 10:24:22;;;;;;;24.73;13.43;;;3.80;99.90;;;;;;5059531;28;20404;-81
2021/11/12 10:26:51;;;;;;;28.70;15.07;;;3.80;99.90;;;;;;5060250;28;20548;-81
2021/11/12 10:29:22;;;;;;;18.57;11.10;;;3.90;99.90;;;;;;5029745;28;20491;-80
2021/11/12 10:31:51;;;;;;;21.53;12.07;;;3.70;99.90;;;;;;5078684;28;20577;-82
2021/11/12 10:34:22;;;;;;;19.47;11.80;;;3.80;99.90;;;;;;5078201;28;20410;-81
2021/11/12 10:36:53;;;;;;;23.17;12.60;;;3.80;99.90;;;;;;5096722;28;20408;-82
2021/11/12 10:39:27;;;;;;;29.90;14.23;;;3.90;99.90;;;;;;5077018;28;20426;-80
2021/11/12 10:41:55;;;;;;;29.60;14.27;;;4.00;99.90;;;;;;5097378;28;20411;-82
2021/11/12 10:44:21;;;;;;;29.53;17.87;;;3.80;99.90;;;;;;5081448;28;20415;-82
2021/11/12 10:46:47;;;;;;;23.27;14.60;;;4.00;99.90;;;;;;5081251;28;20444;-83
2021/11/12 10:49:32;;;;;;;30.30;15.97;;;4.00;99.90;;;;;;5102427;28;20182;-80
2021/11/12 10:52:03;;;;;;;30.97;16.17;;;4.00;99.90;;;;;;5080939;28;20481;-81
2021/11/12 10:54:42;;;;;;;26.57;13.70;;;4.00;99.90;;;;;;5078631;28;20440;-80
2021/11/12 10:57:09;;;;;;;22.90;14.90;;;4.10;99.90;;;;;;5104645;28;20949;-79
2021/11/12 10:59:51;;;;;;;19.73;13.03;;;4.20;99.90;;;;;;5102561;28;20459;-81
2021/11/12 11:02:26;;;;;;;26.13;14.80;;;4.00;99.90;;;;;;5084341;28;20431;-79
2021/11/12 11:04:52;;;;;;;23.00;12.90;;;4.00;99.90;;;;;;5074896;28;20423;-80
2021/11/12 11:07:21;;;;;;;19.53;13.90;;;4.10;99.90;;;;;;5087289;28;20416;-81
2021/11/12 11:09:47;;;;;;;21.27;13.20;;;4.20;99.90;;;;;;5108380;28;20187;-80
2021/11/12 11:12:35;;;;;;;26.83;14.77;;;4.10;99.90;;;;;;5073465;28;20440;-82
2021/11/12 11:15:25;;;;;;;22.83;13.87;;;4.20;99.90;;;;;;5038189;28;20189;-82
2021/11/12 11:18:07;;;;;;;20.30;12.30;;;4.00;99.90;;;;;;5064441;28;20410;-80
2021/11/12 11:20:34;;;;;;;22.73;14.83;;;4.00;99.90;;;;;;5039105;28;20513;-82
2021/11/12 11:23:03;;;;;;;32.53;16.00;;;4.10;99.90;;;;;;5050214;28;20457;-79
2021/11/12 11:25:31;;;;;;;21.50;15.80;;;4.10;99.90;;;;;;5064537;28;20421;-80
2021/11/12 11:28:00;;;;;;;27.60;16.10;;;4.30;99.90;;;;;;5067828;28;20418;-79
2021/11/12 11:30:26;;;;;;;21.73;13.60;;;4.30;99.90;;;;;;5036280;28;20477;-82
2021/11/12 11:32:53;;;;;;;23.20;14.37;;;4.30;99.90;;;;;;5053842;28;20443;-80
2021/11/12 11:35:20;;;;;;;26.87;16.47;;;4.20;99.90;;;;;;5044330;28;20451;-79
2021/11/12 11:37:52;;;;;;;37.67;14.50;;;4.30;99.90;;;;;;5052111;28;20412;-80
2021/11/12 11:40:19;;;;;;;27.63;15.57;;;4.30;99.90;;;;;;5024841;28;20444;-79
2021/11/12 11:42:46;;;;;;;27.70;15.87;;;4.30;99.90;;;;;;5030797;28;20494;-81
2021/11/12 11:45:17;;;;;;;28.27;14.77;;;4.40;99.90;;;;;;5034327;28;20446;-82
2021/11/12 11:47:47;;;;;;;24.80;15.67;;;4.50;99.90;;;;;;5034179;28;20502;-81
2021/11/12 11:50:27;;;;;;;24.47;16.00;;;4.50;99.90;;;;;;5023742;28;20463;-81
2021/11/12 11:53:22;;;;;;;26.20;16.10;;;4.40;99.90;;;;;;5049098;28;20631;-81
2021/11/12 11:55:48;;;;;;;33.20;18.37;;;4.60;99.90;;;;;;5011164;28;20494;-80
2021/11/12 11:58:36;;;;;;;28.37;15.40;;;4.60;99.90;;;;;;4988595;28;20450;-80
2021/11/12 12:01:36;;;;;;;26.97;15.37;;;4.70;99.90;;;;;;5033883;28;20537;-80
2021/11/12 12:04:23;;;;;;;33.17;17.87;;;4.50;99.90;;;;;;5018909;28;20474;-81
2021/11/12 12:07:16;;;;;;;23.60;14.53;;;4.50;99.90;;;;;;4999624;28;20448;-81
2021/11/12 12:10:14;;;;;;;30.83;18.20;;;4.70;99.90;;;;;;4964641;28;20432;-82
2021/11/12 12:12:43;;;;;;;29.60;18.53;;;4.80;99.90;;;;;;5000975;28;20472;-81
2021/11/12 12:15:30;;;;;;;22.57;13.87;;;4.70;99.90;;;;;;5014325;28;20463;-78
2021/11/12 12:18:23;;;;;;;18.83;11.70;;;4.60;99.90;;;;;;5017029;28;20427;-81
2021/11/12 12:21:23;;;;;;;19.83;11.87;;;4.60;99.90;;;;;;5009896;28;20426;-80
2021/11/12 12:33:00;;;;;;;13.73;9.73;;;4.60;99.90;;;;;;5068638;28;20501;-80
2021/11/12 12:41:23;;;;;;;19.90;10.53;;;4.50;99.90;;;;;;5053956;28;20659;-81
2021/11/12 13:21:05;;;;;;;20.67;12.87;;;4.90;99.90;;;;;;5044153;28;20462;-80
2021/11/12 13:23:44;;;;;;;23.90;12.97;;;5.00;99.90;;;;;;5041319;28;20445;-81
2021/11/12 13:26:10;;;;;;;25.83;13.33;;;4.80;99.90;;;;;;5038241;28;20598;-78
2021/11/12 13:28:40;;;;;;;29.17;12.70;;;4.90;99.90;;;;;;5043905;28;20905;-80
2021/11/12 13:31:18;;;;;;;29.73;15.60;;;5.10;99.90;;;;;;5081102;28;20183;-80
2021/11/12 13:33:53;;;;;;;21.37;13.53;;;5.10;99.90;;;;;;5086604;28;20415;-79
2021/11/12 13:36:28;;;;;;;29.83;16.83;;;5.10;99.90;;;;;;5086316;28;20991;-80
2021/11/12 13:39:20;;;;;;;21.47;12.20;;;5.00;99.90;;;;;;5050616;28;20438;-79
2021/11/12 13:41:49;;;;;;;19.33;11.27;;;4.90;99.90;;;;;;5103177;28;20918;-80
2021/11/12 13:44:19;;;;;;;11.57;8.67;;;4.90;99.90;;;;;;5078866;28;20419;-78
2021/11/12 13:47:03;;;;;;;14.23;10.33;;;4.70;99.90;;;;;;5064167;28;20397;-80
2021/11/12 13:49:33;;;;;;;11.47;7.53;;;4.90;99.90;;;;;;5065883;28;20443;-79
2021/11/12 13:52:13;;;;;;;9.97;8.40;;;5.00;99.90;;;;;;5105459;28;20422;-79
2021/11/12 13:54:45;;;;;;;15.03;10.40;;;5.00;99.90;;;;;;5107545;28;20451;-79
2021/11/12 13:57:23;;;;;;;21.17;13.90;;;5.10;99.90;;;;;;5099094;28;20437;-79
2021/11/12 14:00:19;;;;;;;23.10;12.97;;;5.20;99.90;;;;;;5067230;28;21094;-79
2021/11/12 14:03:03;;;;;;;30.40;15.20;;;5.30;99.90;;;;;;5048112;28;20473;-80
2021/11/12 14:05:29;;;;;;;21.80;13.47;;;5.30;99.90;;;;;;5069687;28;20465;-79
2021/11/12 14:08:00;;;;;;;19.27;12.40;;;5.10;99.90;;;;;;5063052;28;20845;-79
2021/11/12 14:10:45;;;;;;;24.43;13.03;;;5.20;99.90;;;;;;5071480;28;20430;-80
2021/11/12 14:13:15;;;;;;;32.97;18.50;;;5.20;99.90;;;;;;5083050;28;20388;-79
2021/11/12 14:15:59;;;;;;;19.03;12.30;;;5.00;99.90;;;;;;5062741;28;20437;-78
2021/11/12 14:18:38;;;;;;;24.20;12.60;;;5.00;99.90;;;;;;5059329;28;20416;-79
2021/11/12 14:29:51;;;;;;;15.63;9.97;;;5.30;99.90;;;;;;5070763;28;20416;-79
2021/11/12 14:35:23;;;;;;;17.37;12.03;;;5.20;99.90;;;;;;5123833;28;20565;-80
2021/11/12 14:38:13;;;;;;;21.57;13.77;;;5.30;99.90;;;;;;5098868;28;20433;-80
2021/11/12 14:43:41;;;;;;;16.50;10.30;;;5.30;99.90;;;;;;5120189;28;20539;-80
2021/11/12 14:46:31;;;;;;;14.37;8.53;;;5.20;99.90;;;;;;5119192;28;20434;-80
2021/11/12 14:49:18;;;;;;;19.90;10.90;;;5.10;99.90;;;;;;5117157;28;20423;-80
2021/11/12 14:52:04;;;;;;;14.33;10.57;;;5.30;99.90;;;;;;5097753;28;20551;-79
2021/11/12 14:54:41;;;;;;;17.80;11.10;;;5.10;99.90;;;;;;5106276;28;20436;-81
2021/11/12 14:57:23;;;;;;;19.20;11.73;;;5.20;99.90;;;;;;5079495;28;20488;-80
2021/11/12 14:59:52;;;;;;;25.40;13.27;;;5.20;99.90;;;;;;5088824;28;20520;-80
2021/11/12 15:02:22;;;;;;;19.00;11.83;;;5.30;99.90;;;;;;5068774;28;20814;-79
2021/11/12 15:04:48;;;;;;;19.13;11.70;;;5.20;99.90;;;;;;5059390;28;20482;-82
2021/11/12 15:07:20;;;;;;;16.63;8.13;;;5.30;99.90;;;;;;5048591;28;20437;-82
2021/11/12 15:09:51;;;;;;;13.77;9.07;;;5.40;99.90;;;;;;4999664;28;20452;-81
2021/11/12 15:12:18;;;;;;;11.90;8.50;;;5.50;99.90;;;;;;5068742;28;20449;-79
2021/11/12 15:17:24;;;;;;;17.43;10.10;;;5.20;99.90;;;;;;5080856;28;20454;-80
2021/11/12 15:19:50;;;;;;;12.40;9.80;;;5.20;99.90;;;;;;5083614;28;20425;-80
2021/11/12 15:27:56;;;;;;;16.27;10.00;;;5.50;99.90;;;;;;5017701;28;20417;-80
2021/11/12 15:30:26;;;;;;;15.70;10.63;;;5.60;99.90;;;;;;5045557;28;20755;-78
2021/11/12 15:32:58;;;;;;;18.30;10.70;;;5.60;99.90;;;;;;5035639;28;20595;-79
2021/11/12 15:35:27;;;;;;;18.87;9.00;;;5.70;99.90;;;;;;5085211;28;20483;-78
2021/11/12 15:38:02;;;;;;;20.80;11.40;;;5.70;99.90;;;;;;5076545;28;21071;-80
2021/11/12 15:40:37;;;;;;;13.40;10.17;;;5.40;99.90;;;;;;5040348;28;20471;-79
2021/11/12 15:45:53;;;;;;;15.93;11.30;;;5.50;99.90;;;;;;5032955;28;20442;-78
2021/11/12 15:48:22;;;;;;;23.07;13.40;;;5.40;99.90;;;;;;5003492;28;20435;-78
2021/11/12 15:51:07;;;;;;;11.23;8.60;;;5.30;99.90;;;;;;5022322;28;20515;-79
2021/11/12 15:53:55;;;;;;;12.93;10.10;;;5.30;99.90;;;;;;5018324;28;20441;-79
2021/11/12 15:56:48;;;;;;;17.23;10.60;;;5.20;99.90;;;;;;5031875;28;20498;-79
2021/11/12 16:13:14;;;;;;;16.47;11.63;;;5.60;99.90;;;;;;4954415;28;20496;-79
2021/11/12 16:16:05;;;;;;;19.97;13.50;;;5.60;99.90;;;;;;4963212;28;20473;-78
2021/11/12 16:18:40;;;;;;;15.63;11.70;;;5.70;99.90;;;;;;4947655;29;20483;-79
2021/11/12 16:26:33;;;;;;;24.03;13.13;;;5.30;99.90;;;;;;4938291;29;20860;-82
2021/11/12 16:29:48;;;;;;;14.50;10.30;;;5.20;99.90;;;;;;4946392;29;20442;-81
2021/11/12 16:32:07;;;;;;;17.80;11.37;;;5.20;99.90;;;;;;4955056;29;20431;-81
2021/11/12 16:34:41;;;;;;;14.13;11.20;;;5.10;99.90;;;;;;4974965;28;21032;-81
2021/11/12 16:37:09;;;;;;;16.13;11.23;;;5.10;99.90;;;;;;4983037;28;20437;-82
2021/11/12 16:39:48;;;;;;;15.60;11.83;;;5.30;99.90;;;;;;4995968;28;20820;-81
2021/11/12 16:42:32;;;;;;;15.90;9.87;;;5.30;99.90;;;;;;5001567;28;20555;-81
2021/11/12 16:45:07;;;;;;;14.93;11.30;;;5.50;99.90;;;;;;5004225;28;20428;-82
2021/11/12 16:47:42;;;;;;;17.20;12.23;;;5.40;99.90;;;;;;5019957;28;20398;-80
2021/11/12 16:50:20;;;;;;;16.87;12.37;;;5.40;99.90;;;;;;5021621;28;20776;-82
2021/11/12 16:53:09;;;;;;;19.30;11.70;;;5.30;99.90;;;;;;5008417;28;20414;-81
2021/11/12 16:55:52;;;;;;;17.87;11.20;;;5.40;99.90;;;;;;5040116;28;20453;-82
2021/11/12 16:58:31;;;;;;;17.77;10.70;;;5.30;99.90;;;;;;5018516;28;20439;-79
2021/11/12 17:01:36;;;;;;;18.13;10.90;;;5.40;99.90;;;;;;5039499;28;20435;-79
2021/11/12 17:04:00;;;;;;;17.37;11.77;;;5.50;99.90;;;;;;4968112;28;20465;-79
2021/11/12 17:06:35;;;;;;;21.63;12.90;;;5.50;99.90;;;;;;4948395;29;20468;-78
2021/11/12 17:09:27;;;;;;;23.73;10.87;;;5.30;99.90;;;;;;4911225;28;20394;-80
2021/11/12 17:12:14;;;;;;;22.03;12.67;;;5.20;99.90;;;;;;4947487;29;20429;-80
2021/11/12 17:15:26;;;;;;;13.10;11.30;;;5.30;99.90;;;;;;4916314;29;20925;-78
2021/11/12 17:20:56;;;;;;;17.63;10.67;;;5.10;99.90;;;;;;4911144;29;20407;-76
2021/11/12 17:44:46;;;;;;;18.53;12.70;;;5.10;99.90;;;;;;4908675;29;20954;-78
2021/11/12 17:45:22;;;;;;;20.63;12.80;;;5.30;99.90;;;;;;4975415;28;20425;-80
2021/11/12 17:47:49;;;;;;;22.67;14.37;;;5.30;99.90;;;;;;4976656;28;20449;-80
2021/11/12 17:50:24;;;;;;;21.60;13.37;;;5.30;99.90;;;;;;4965793;28;20407;-80
2021/11/12 17:53:13;;;;;;;24.13;16.50;;;5.30;99.90;;;;;;4998529;28;20929;-80
2021/11/12 18:03:50;;;;;;;21.70;11.60;;;5.40;99.90;;;;;;5043425;28;20644;-79
2021/11/12 18:06:20;;;;;;;20.33;13.77;;;5.60;99.90;;;;;;5123936;27;20397;-80